createdAt,value
2023-04-30T00:00:34.624Z,0.80
2023-04-30T00:03:01.249Z,0.82
2023-04-30T00:05:27.933Z,0.57
2023-04-30T00:07:54.562Z,0.90
2023-04-30T00:10:21.099Z,0.93
2023-04-30T00:12:47.624Z,0.57
2023-04-30T00:15:14.205Z,0.93
2023-04-30T00:17:40.725Z,0.60
2023-04-30T00:20:07.445Z,0.60
2023-04-30T00:22:33.999Z,0.73
2023-04-30T00:25:00.499Z,0.75
2023-04-30T00:27:27.043Z,0.70
2023-04-30T00:29:55.052Z,0.73
2023-04-30T00:32:21.986Z,0.70
2023-04-30T00:34:48.761Z,0.50
2023-04-30T00:37:15.387Z,1.00
2023-04-30T00:39:41.831Z,0.80
2023-04-30T00:42:08.289Z,0.60
2023-04-30T00:44:35.069Z,0.38
2023-04-30T00:47:01.555Z,0.65
2023-04-30T00:49:28.134Z,0.67
2023-04-30T00:51:54.907Z,0.50
2023-04-30T00:54:21.467Z,0.50
2023-04-30T00:56:48.006Z,0.60
2023-04-30T00:59:14.845Z,0.77
2023-04-30T01:01:41.992Z,0.55
2023-04-30T01:04:08.566Z,0.50
2023-04-30T01:06:35.486Z,0.43
2023-04-30T01:09:02.250Z,0.60
2023-04-30T01:11:39.366Z,0.40
2023-04-30T01:14:08.606Z,0.70
2023-04-30T01:16:43.602Z,0.45
2023-04-30T01:19:16.573Z,0.60
2023-04-30T01:21:43.299Z,0.55
2023-04-30T01:24:12.793Z,0.70
2023-04-30T01:26:58.310Z,0.60
2023-04-30T01:29:27.070Z,0.40
2023-04-30T01:31:53.516Z,0.57
2023-04-30T01:34:20.216Z,0.50
2023-04-30T01:36:54.505Z,0.40
2023-04-30T01:39:21.182Z,0.55
2023-04-30T01:41:53.862Z,0.70
2023-04-30T01:44:23.201Z,0.93
2023-04-30T01:47:04.685Z,0.73
2023-04-30T01:49:33.985Z,0.60
2023-04-30T01:52:03.599Z,0.60
2023-04-30T01:54:30.014Z,0.67
2023-04-30T01:57:04.379Z,0.70
2023-04-30T01:59:39.262Z,0.70
2023-04-30T02:02:06.326Z,0.60
2023-04-30T02:04:32.766Z,0.80
2023-04-30T02:06:59.430Z,0.70
2023-04-30T02:09:25.913Z,0.40
2023-04-30T02:11:52.435Z,0.73
2023-04-30T02:14:18.976Z,0.77
2023-04-30T02:16:45.609Z,0.70
2023-04-30T02:19:12.576Z,0.77
2023-04-30T02:21:39.031Z,0.40
2023-04-30T02:24:06.280Z,0.60
2023-04-30T02:26:32.925Z,0.50
2023-04-30T02:28:59.378Z,0.83
2023-04-30T02:31:25.894Z,0.70
2023-04-30T02:33:52.336Z,0.70
2023-04-30T02:36:18.862Z,0.53
2023-04-30T02:38:45.438Z,0.80
2023-04-30T02:41:12.140Z,0.23
2023-04-30T02:43:39.058Z,0.50
2023-04-30T02:46:06.528Z,0.53
2023-04-30T02:48:33.064Z,0.70
2023-04-30T02:50:59.521Z,0.50
2023-04-30T02:53:26.068Z,0.67
2023-04-30T02:55:52.570Z,0.60
2023-04-30T02:58:19.126Z,0.60
2023-04-30T03:00:45.899Z,0.47
2023-04-30T03:03:12.485Z,0.40
2023-04-30T03:05:38.996Z,0.70
2023-04-30T03:08:05.650Z,0.70
2023-04-30T03:10:32.089Z,0.40
2023-04-30T03:12:58.584Z,0.57
2023-04-30T03:15:24.984Z,0.50
2023-04-30T03:17:51.838Z,0.60
2023-04-30T03:20:18.348Z,0.67
2023-04-30T03:22:44.890Z,0.50
2023-04-30T03:25:11.675Z,0.50
2023-04-30T03:27:38.156Z,0.60
2023-04-30T03:30:04.950Z,0.60
2023-04-30T03:32:31.618Z,0.80
2023-04-30T03:34:58.537Z,0.50
2023-04-30T03:37:26.434Z,0.60
2023-04-30T03:39:53.131Z,0.70
2023-04-30T03:42:19.924Z,0.50
2023-04-30T03:44:46.525Z,0.70
2023-04-30T03:47:12.969Z,0.47
2023-04-30T03:49:39.773Z,0.70
2023-04-30T03:52:07.166Z,0.50
2023-04-30T03:54:36.521Z,0.50
2023-04-30T03:57:07.717Z,0.67
2023-04-30T03:59:34.385Z,0.50
2023-04-30T04:02:01.703Z,0.67
2023-04-30T04:04:28.983Z,0.60
2023-04-30T04:06:55.500Z,0.40
2023-04-30T04:09:22.148Z,0.63
2023-04-30T04:11:49.080Z,0.60
2023-04-30T04:14:16.416Z,0.70
2023-04-30T04:16:43.515Z,0.90
2023-04-30T04:19:10.090Z,0.70
2023-04-30T04:21:36.787Z,0.60
2023-04-30T04:24:08.788Z,0.57
2023-04-30T04:26:36.241Z,0.80
2023-04-30T04:29:04.184Z,0.60
2023-04-30T04:31:34.391Z,0.80
2023-04-30T04:34:04.455Z,0.70
2023-04-30T04:36:31.813Z,0.77
2023-04-30T04:39:02.147Z,0.47
2023-04-30T04:41:29.831Z,1.07
2023-04-30T04:43:56.910Z,0.60
2023-04-30T04:46:24.420Z,0.77
2023-04-30T04:48:51.760Z,0.50
2023-04-30T04:51:18.374Z,0.60
2023-04-30T04:53:44.847Z,0.70
2023-04-30T04:56:11.320Z,0.80
2023-04-30T04:58:37.776Z,0.60
2023-04-30T05:01:05.892Z,0.63
2023-04-30T05:03:32.787Z,0.70
2023-04-30T05:05:59.378Z,0.50
2023-04-30T05:08:26.160Z,0.80
2023-04-30T05:10:52.674Z,0.70
2023-04-30T05:13:19.127Z,0.57
2023-04-30T05:15:45.610Z,0.70
2023-04-30T05:18:12.072Z,0.60
2023-04-30T05:20:38.556Z,0.80
2023-04-30T05:23:05.055Z,0.70
2023-04-30T05:25:31.587Z,0.60
2023-04-30T05:27:58.532Z,0.60
2023-04-30T05:30:24.999Z,1.10
2023-04-30T05:32:52.646Z,0.80
2023-04-30T05:35:19.568Z,0.77
2023-04-30T05:37:46.234Z,0.80
2023-04-30T05:40:13.422Z,0.70
2023-04-30T05:42:40.979Z,0.90
2023-04-30T05:45:08.349Z,0.80
2023-04-30T05:47:34.865Z,0.90
2023-04-30T05:50:01.353Z,0.60
2023-04-30T05:52:27.778Z,0.50
2023-04-30T05:54:54.283Z,0.80
2023-04-30T05:57:20.849Z,0.73
2023-04-30T05:59:47.318Z,0.70
2023-04-30T06:02:13.813Z,0.88
2023-04-30T06:04:40.323Z,0.50
2023-04-30T06:07:06.850Z,0.70
2023-04-30T06:09:33.312Z,0.97
2023-04-30T06:11:59.769Z,0.75
2023-04-30T06:14:26.256Z,0.80
2023-04-30T06:16:53.782Z,0.60
2023-04-30T06:19:20.920Z,0.52
2023-04-30T06:21:47.424Z,0.75
2023-04-30T06:24:13.925Z,0.80
2023-04-30T06:26:40.415Z,0.73
2023-04-30T06:29:07.002Z,0.68
2023-04-30T06:31:33.598Z,0.90
2023-04-30T06:34:00.131Z,0.65
2023-04-30T06:36:26.632Z,1.00
2023-04-30T06:38:53.177Z,0.60
2023-04-30T06:41:19.654Z,0.75
2023-04-30T06:43:46.261Z,1.00
2023-04-30T06:46:12.779Z,0.77
2023-04-30T06:48:39.318Z,0.60
2023-04-30T06:51:05.915Z,0.80
2023-04-30T06:53:32.444Z,1.00
2023-04-30T06:55:59.059Z,1.02
2023-04-30T06:58:25.855Z,0.70
2023-04-30T07:00:52.475Z,0.70
2023-04-30T07:03:19.019Z,1.00
2023-04-30T07:05:45.590Z,0.70
2023-04-30T07:08:13.180Z,0.80
2023-04-30T07:10:39.795Z,0.90
2023-04-30T07:13:08.269Z,0.68
2023-04-30T07:15:35.055Z,0.47
2023-04-30T07:18:01.753Z,1.05
2023-04-30T07:20:28.278Z,1.02
2023-04-30T07:22:55.682Z,0.90
2023-04-30T07:25:22.171Z,1.00
2023-04-30T07:27:48.602Z,0.75
2023-04-30T07:30:15.087Z,0.73
2023-04-30T07:32:41.621Z,0.60
2023-04-30T07:35:08.371Z,0.70
2023-04-30T07:37:35.965Z,0.82
2023-04-30T07:40:03.548Z,0.80
2023-04-30T07:42:30.071Z,1.10
2023-04-30T07:44:56.612Z,0.77
2023-04-30T07:47:23.259Z,0.70
2023-04-30T07:49:49.753Z,0.77
2023-04-30T07:52:16.304Z,0.80
2023-04-30T07:54:42.963Z,0.98
2023-04-30T07:57:09.626Z,1.30
2023-04-30T07:59:38.477Z,0.75
2023-04-30T08:02:05.547Z,0.80
2023-04-30T08:04:32.204Z,0.98
2023-04-30T08:06:58.828Z,1.10
2023-04-30T08:09:25.334Z,0.82
2023-04-30T08:11:53.095Z,1.00
2023-04-30T08:14:20.370Z,0.77
2023-04-30T08:16:46.900Z,0.90
2023-04-30T08:19:13.724Z,1.00
2023-04-30T08:21:40.435Z,0.75
2023-04-30T08:24:06.985Z,0.68
2023-04-30T08:26:33.486Z,0.75
2023-04-30T08:28:59.957Z,0.82
2023-04-30T08:31:26.484Z,0.60
2023-04-30T08:33:53.011Z,0.50
2023-04-30T08:36:19.902Z,0.50
2023-04-30T08:38:46.556Z,0.60
2023-04-30T08:41:14.314Z,0.50
2023-04-30T08:43:41.085Z,0.45
2023-04-30T08:46:07.751Z,0.70
2023-04-30T08:48:34.746Z,0.50
2023-04-30T08:51:02.212Z,0.40
2023-04-30T08:53:30.053Z,0.95
2023-04-30T08:55:56.464Z,0.30
2023-04-30T08:58:22.959Z,0.20
2023-04-30T09:00:49.479Z,0.32
2023-04-30T09:03:16.261Z,0.30
2023-04-30T09:05:42.870Z,0.30
2023-04-30T09:08:09.463Z,0.05
2023-04-30T09:10:36.025Z,0.20
2023-04-30T09:13:04.251Z,0.13
2023-04-30T09:15:31.670Z,0.25
2023-04-30T09:18:12.094Z,0.20
2023-04-30T09:20:53.323Z,0.10
2023-04-30T09:23:19.894Z,0.17
2023-04-30T09:25:46.461Z,0.00
2023-04-30T09:28:13.530Z,0.30
2023-04-30T09:30:40.935Z,0.05
2023-04-30T09:33:10.026Z,0.30
2023-04-30T09:35:39.048Z,0.28
2023-04-30T09:38:05.520Z,0.20
2023-04-30T09:40:35.832Z,0.40
2023-04-30T09:43:03.358Z,0.50
2023-04-30T09:45:39.952Z,0.30
2023-04-30T09:48:16.584Z,0.50
2023-04-30T09:50:45.030Z,0.28
2023-04-30T09:53:14.179Z,0.50
2023-04-30T09:55:44.830Z,0.30
2023-04-30T09:58:11.644Z,0.40
2023-04-30T10:00:39.673Z,0.30
2023-04-30T10:03:08.241Z,0.28
2023-04-30T10:05:39.139Z,0.40
2023-04-30T10:08:07.222Z,0.30
2023-04-30T10:10:34.278Z,0.30
2023-04-30T10:13:04.566Z,0.35
2023-04-30T10:15:39.259Z,0.47
2023-04-30T10:18:09.098Z,0.30
2023-04-30T10:20:39.245Z,0.20
2023-04-30T10:23:07.104Z,0.30
2023-04-30T10:25:34.009Z,0.25
2023-04-30T10:28:01.570Z,0.30
2023-04-30T10:30:31.866Z,0.40
2023-04-30T10:33:01.362Z,0.38
2023-04-30T10:35:30.554Z,0.40
2023-04-30T10:38:04.184Z,0.15
2023-04-30T10:40:35.474Z,0.15
2023-04-30T10:43:02.025Z,0.30
2023-04-30T10:45:38.771Z,0.10
2023-04-30T10:48:06.535Z,0.10
2023-04-30T10:50:33.275Z,0.00
2023-04-30T10:53:03.737Z,0.10
2023-04-30T10:55:30.508Z,0.10
2023-04-30T10:57:58.529Z,0.03
2023-04-30T11:00:29.054Z,0.10
2023-04-30T11:02:56.766Z,0.10
2023-04-30T11:05:34.515Z,0.17
2023-04-30T11:08:01.334Z,0.10
2023-04-30T11:10:28.626Z,0.10
2023-04-30T11:12:55.815Z,0.10
2023-04-30T11:15:26.089Z,0.20
2023-04-30T11:17:56.177Z,0.10
2023-04-30T11:20:26.492Z,0.10
2023-04-30T11:23:08.529Z,0.10
2023-04-30T11:25:44.855Z,0.05
2023-04-30T11:28:14.288Z,0.20
2023-04-30T11:30:41.679Z,0.05
2023-04-30T11:33:08.946Z,0.10
2023-04-30T11:35:35.552Z,0.03
2023-04-30T11:38:04.101Z,0.10
2023-04-30T11:40:35.069Z,0.10
2023-04-30T11:43:01.518Z,0.00
2023-04-30T11:45:27.969Z,0.00
2023-04-30T11:47:55.094Z,0.30
2023-04-30T11:50:28.899Z,0.00
2023-04-30T11:52:56.285Z,0.08
2023-04-30T11:55:23.874Z,0.03
2023-04-30T11:57:51.220Z,0.00
2023-04-30T12:00:18.922Z,0.00
2023-04-30T12:02:47.155Z,0.00
2023-04-30T12:05:17.749Z,0.28
2023-04-30T12:07:48.702Z,0.00
2023-04-30T12:10:15.476Z,0.00
2023-04-30T12:12:45.051Z,0.00
2023-04-30T12:15:18.419Z,0.00
2023-04-30T12:17:46.199Z,0.10
2023-04-30T12:20:14.458Z,0.03
2023-04-30T12:22:41.683Z,0.10
2023-04-30T12:25:10.004Z,0.00
2023-04-30T12:27:36.631Z,0.00
2023-04-30T12:30:10.765Z,0.00
2023-04-30T12:32:41.701Z,0.10
2023-04-30T12:35:08.923Z,0.00
2023-04-30T12:37:35.816Z,0.43
2023-04-30T12:40:02.568Z,0.00
2023-04-30T12:42:35.840Z,0.10
2023-04-30T12:45:02.417Z,0.28
2023-04-30T12:47:29.465Z,0.00
2023-04-30T12:49:56.784Z,0.00
2023-04-30T12:52:24.442Z,0.00
2023-04-30T12:54:50.994Z,0.10
2023-04-30T12:57:17.509Z,0.00
2023-04-30T12:59:49.822Z,0.00
2023-04-30T13:02:16.326Z,0.20
2023-04-30T13:04:43.360Z,0.00
2023-04-30T13:07:10.115Z,0.00
2023-04-30T13:09:37.058Z,0.00
2023-04-30T13:12:04.030Z,0.00
2023-04-30T13:14:33.938Z,0.00
2023-04-30T13:17:01.409Z,0.00
2023-04-30T13:19:27.922Z,0.10
2023-04-30T13:21:54.422Z,0.00
2023-04-30T13:24:20.925Z,0.05
2023-04-30T13:26:48.159Z,0.00
2023-04-30T13:29:14.640Z,0.00
2023-04-30T13:31:42.433Z,0.00
2023-04-30T13:34:09.708Z,0.00
2023-04-30T13:36:36.584Z,0.20
2023-04-30T13:39:04.346Z,0.00
2023-04-30T13:41:30.834Z,0.00
2023-04-30T13:43:57.344Z,0.03
2023-04-30T13:46:24.033Z,0.00
2023-04-30T13:48:53.090Z,0.00
2023-04-30T13:51:19.991Z,0.00
2023-04-30T13:53:46.399Z,0.00
2023-04-30T13:56:13.043Z,0.08
2023-04-30T13:58:39.787Z,0.03
2023-04-30T14:01:06.380Z,0.00
2023-04-30T14:03:33.810Z,0.00
2023-04-30T14:06:00.470Z,0.20
2023-04-30T14:08:26.980Z,0.15
2023-04-30T14:10:53.474Z,0.00
2023-04-30T14:13:19.940Z,0.00
2023-04-30T14:15:47.856Z,0.10
2023-04-30T14:18:14.422Z,0.00
2023-04-30T14:20:41.116Z,0.00
2023-04-30T14:23:08.610Z,0.00
2023-04-30T14:25:35.106Z,0.00
2023-04-30T14:28:01.578Z,0.00
2023-04-30T14:30:28.282Z,0.00
2023-04-30T14:32:55.911Z,0.00
2023-04-30T14:35:22.823Z,0.08
2023-04-30T14:37:49.246Z,0.10
2023-04-30T14:40:15.764Z,0.00
2023-04-30T14:42:42.805Z,0.00
2023-04-30T14:45:09.558Z,0.00
2023-04-30T14:47:36.141Z,0.00
2023-04-30T14:50:02.757Z,0.10
2023-04-30T14:52:29.251Z,0.00
2023-04-30T14:54:56.140Z,0.00
2023-04-30T14:57:23.523Z,0.10
2023-04-30T14:59:50.050Z,0.08
2023-04-30T15:02:16.778Z,0.00
2023-04-30T15:04:46.114Z,0.00
2023-04-30T15:07:12.857Z,0.00
2023-04-30T15:09:39.585Z,0.00
2023-04-30T15:12:06.224Z,0.08
2023-04-30T15:14:32.836Z,0.20
2023-04-30T15:16:59.313Z,0.20
2023-04-30T15:19:26.079Z,0.30
2023-04-30T15:21:52.662Z,0.08
2023-04-30T15:24:19.163Z,0.10
2023-04-30T15:26:45.764Z,0.10
2023-04-30T15:29:12.310Z,0.03
2023-04-30T15:31:38.800Z,0.05
2023-04-30T15:34:05.436Z,0.20
2023-04-30T15:36:32.388Z,0.10
2023-04-30T15:38:59.095Z,0.00
2023-04-30T15:41:25.688Z,0.20
2023-04-30T15:43:52.215Z,0.00
2023-04-30T15:46:19.211Z,0.10
2023-04-30T15:48:45.732Z,0.10
2023-04-30T15:51:12.241Z,0.13
2023-04-30T15:53:38.955Z,0.20
2023-04-30T15:56:06.847Z,0.03
2023-04-30T15:58:33.298Z,0.20
2023-04-30T16:01:00.201Z,0.00
2023-04-30T16:03:26.878Z,0.05
2023-04-30T16:05:53.913Z,0.00
2023-04-30T16:08:20.693Z,0.30
2023-04-30T16:10:47.262Z,0.17
2023-04-30T16:13:13.882Z,0.20
2023-04-30T16:15:40.428Z,0.10
2023-04-30T16:18:07.811Z,0.13
2023-04-30T16:20:34.376Z,0.13
2023-04-30T16:23:00.890Z,0.08
2023-04-30T16:25:27.357Z,0.10
2023-04-30T16:27:53.871Z,0.10
2023-04-30T16:30:20.389Z,0.20
2023-04-30T16:32:46.927Z,0.30
2023-04-30T16:35:13.554Z,0.10
2023-04-30T16:37:40.061Z,0.10
2023-04-30T16:40:07.696Z,0.08
2023-04-30T16:42:34.431Z,0.20
2023-04-30T16:45:01.582Z,0.20
2023-04-30T16:47:28.149Z,0.10
2023-04-30T16:49:55.795Z,0.20
2023-04-30T16:52:22.564Z,0.10
2023-04-30T16:54:49.094Z,0.00
2023-04-30T16:57:15.686Z,0.10
2023-04-30T16:59:42.158Z,0.20
2023-04-30T17:02:08.706Z,0.20
2023-04-30T17:04:36.026Z,0.10
2023-04-30T17:07:03.620Z,0.08
2023-04-30T17:09:30.313Z,0.13
2023-04-30T17:11:56.889Z,0.00
2023-04-30T17:14:23.335Z,0.10
2023-04-30T17:16:49.905Z,0.20
2023-04-30T17:19:17.824Z,0.08
2023-04-30T17:21:44.455Z,0.10
2023-04-30T17:24:11.285Z,0.10
2023-04-30T17:26:37.780Z,0.08
2023-04-30T17:29:06.053Z,0.20
2023-04-30T17:31:32.666Z,0.20
2023-04-30T17:34:00.247Z,0.05
2023-04-30T17:36:28.868Z,0.20
2023-04-30T17:38:56.408Z,0.20
2023-04-30T17:41:23.518Z,0.00
2023-04-30T17:43:50.585Z,0.10
2023-04-30T17:46:17.215Z,0.10
2023-04-30T17:48:43.793Z,0.20
2023-04-30T17:51:10.261Z,0.10
2023-04-30T17:53:37.873Z,0.15
2023-04-30T17:56:04.893Z,0.13
2023-04-30T17:58:31.416Z,0.30
2023-04-30T18:00:58.976Z,0.17
2023-04-30T18:03:25.677Z,0.20
2023-04-30T18:05:52.475Z,0.20
2023-04-30T18:08:19.004Z,0.10
2023-04-30T18:10:47.248Z,0.10
2023-04-30T18:13:13.724Z,0.15
2023-04-30T18:15:40.322Z,0.20
2023-04-30T18:18:06.874Z,0.00
2023-04-30T18:20:33.643Z,0.10
2023-04-30T18:23:00.104Z,0.00
2023-04-30T18:25:26.565Z,0.15
2023-04-30T18:27:53.159Z,0.00
2023-04-30T18:30:20.009Z,0.10
2023-04-30T18:32:46.502Z,0.10
2023-04-30T18:35:13.065Z,0.20
2023-04-30T18:37:39.568Z,0.10
2023-04-30T18:40:06.411Z,0.10
2023-04-30T18:42:33.314Z,0.10
2023-04-30T18:45:00.999Z,0.10
2023-04-30T18:47:27.471Z,0.25
2023-04-30T18:49:54.119Z,0.30
2023-04-30T18:52:20.768Z,0.17
2023-04-30T18:54:47.229Z,0.20
2023-04-30T18:57:16.330Z,0.17
2023-04-30T18:59:43.086Z,0.10
2023-04-30T19:02:10.797Z,0.20
2023-04-30T19:04:37.870Z,0.30
2023-04-30T19:07:04.424Z,0.10
2023-04-30T19:09:30.871Z,0.10
2023-04-30T19:11:57.924Z,0.10
2023-04-30T19:14:24.602Z,0.13
2023-04-30T19:16:51.119Z,0.10
2023-04-30T19:19:17.587Z,0.10
2023-04-30T19:21:44.124Z,0.20
2023-04-30T19:24:10.616Z,0.20
2023-04-30T19:26:37.944Z,0.20
2023-04-30T19:29:04.512Z,0.15
2023-04-30T19:31:31.166Z,0.20
2023-04-30T19:33:59.379Z,0.22
2023-04-30T19:36:25.858Z,0.20
2023-04-30T19:38:52.495Z,0.03
2023-04-30T19:41:18.954Z,0.10
2023-04-30T19:43:45.409Z,0.10
2023-04-30T19:46:12.120Z,0.15
2023-04-30T19:48:38.604Z,0.28
2023-04-30T19:51:05.263Z,0.20
2023-04-30T19:53:31.784Z,0.13
2023-04-30T19:55:59.702Z,0.20
2023-04-30T19:58:26.201Z,0.30
2023-04-30T20:00:53.535Z,0.13
2023-04-30T20:03:21.755Z,0.20
2023-04-30T20:05:52.304Z,0.30
2023-04-30T20:08:18.843Z,0.20
2023-04-30T20:10:46.982Z,0.25
2023-04-30T20:13:13.599Z,0.22
2023-04-30T20:15:40.046Z,0.25
2023-04-30T20:18:06.871Z,0.20
2023-04-30T20:20:33.445Z,0.20
2023-04-30T20:23:10.436Z,0.30
2023-04-30T20:25:37.033Z,0.20
2023-04-30T20:28:04.113Z,0.10
2023-04-30T20:30:30.663Z,0.10
2023-04-30T20:32:57.118Z,0.20
2023-04-30T20:35:23.862Z,0.30
2023-04-30T20:37:54.553Z,0.20
2023-04-30T20:40:21.839Z,0.30
2023-04-30T20:42:48.334Z,0.20
2023-04-30T20:45:14.909Z,0.20
2023-04-30T20:47:41.386Z,0.28
2023-04-30T20:50:08.110Z,0.30
2023-04-30T20:52:34.899Z,0.20
2023-04-30T20:55:01.460Z,0.30
2023-04-30T20:57:28.010Z,0.40
2023-04-30T20:59:54.661Z,0.38
2023-04-30T21:02:21.552Z,0.45
2023-04-30T21:04:48.059Z,0.50
2023-04-30T21:07:14.661Z,0.60
2023-04-30T21:09:41.563Z,0.50
2023-04-30T21:12:07.978Z,0.38
2023-04-30T21:14:35.559Z,0.40
2023-04-30T21:17:02.107Z,0.17
2023-04-30T21:19:28.652Z,0.22
2023-04-30T21:21:55.266Z,0.28
2023-04-30T21:24:21.712Z,0.30
2023-04-30T21:26:48.246Z,0.32
2023-04-30T21:29:14.769Z,0.30
2023-04-30T21:31:41.231Z,0.20
2023-04-30T21:34:07.708Z,0.20
2023-04-30T21:36:35.258Z,0.25
2023-04-30T21:39:01.805Z,0.20
2023-04-30T21:41:28.556Z,0.20
2023-04-30T21:43:55.103Z,0.30
2023-04-30T21:46:22.747Z,0.30
2023-04-30T21:48:49.317Z,0.32
2023-04-30T21:51:16.979Z,0.20
2023-04-30T21:53:46.643Z,0.25
2023-04-30T21:56:13.408Z,0.30
2023-04-30T21:58:39.885Z,0.20
2023-04-30T22:01:06.472Z,0.30
2023-04-30T22:03:33.359Z,0.40
2023-04-30T22:06:00.746Z,0.22
2023-04-30T22:08:27.491Z,0.30
2023-04-30T22:10:59.005Z,0.30
2023-04-30T22:13:28.705Z,0.30
2023-04-30T22:15:55.675Z,0.35
2023-04-30T22:18:22.693Z,0.32
2023-04-30T22:20:49.676Z,0.30
2023-04-30T22:23:16.597Z,0.20
2023-04-30T22:25:43.194Z,0.30
2023-04-30T22:28:12.683Z,0.30
2023-04-30T22:30:40.103Z,0.30
2023-04-30T22:33:06.827Z,0.30
2023-04-30T22:35:35.737Z,0.22
2023-04-30T22:38:03.519Z,0.40
2023-04-30T22:40:31.525Z,0.32
2023-04-30T22:42:58.278Z,0.30
2023-04-30T22:45:24.760Z,0.20
2023-04-30T22:47:52.408Z,0.40
2023-04-30T22:50:19.089Z,0.28
2023-04-30T22:52:46.538Z,0.30
2023-04-30T22:55:12.949Z,0.40
2023-04-30T22:57:39.462Z,0.40
2023-04-30T23:00:06.395Z,0.40
2023-04-30T23:02:33.948Z,0.28
2023-04-30T23:05:00.461Z,0.50
2023-04-30T23:07:26.994Z,0.20
2023-04-30T23:09:53.855Z,0.40
2023-04-30T23:12:22.811Z,0.20
2023-04-30T23:14:50.131Z,0.60
2023-04-30T23:17:16.712Z,0.40
2023-04-30T23:19:43.376Z,0.40
2023-04-30T23:22:26.956Z,0.30
2023-04-30T23:24:55.430Z,0.40
2023-04-30T23:27:21.913Z,0.32
2023-04-30T23:29:48.360Z,0.60
2023-04-30T23:32:14.926Z,0.30
2023-04-30T23:34:41.389Z,0.52
2023-04-30T23:37:08.208Z,0.90
2023-04-30T23:39:34.662Z,1.20
2023-04-30T23:42:02.534Z,1.67
2023-04-30T23:44:31.680Z,1.80
2023-04-30T23:47:00.838Z,1.70
2023-04-30T23:49:27.326Z,1.70
2023-04-30T23:51:53.947Z,1.70
2023-04-30T23:54:20.897Z,1.40
2023-04-30T23:56:47.384Z,1.38
2023-04-30T23:59:13.958Z,1.60
